sensor_id;sensor_type;location;lat;lon;timestamp;temperature;humidity
64689;DHT22;62504;46.070;14.492;2023-03-12T00:02:10;7.60;96.80
64689;DHT22;62504;46.070;14.492;2023-03-12T00:04:36;7.60;96.70
64689;DHT22;62504;46.070;14.492;2023-03-12T00:07:02;7.50;96.80
64689;DHT22;62504;46.070;14.492;2023-03-12T00:09:33;7.30;97.10
64689;DHT22;62504;46.070;14.492;2023-03-12T00:11:59;7.20;97.30
64689;DHT22;62504;46.070;14.492;2023-03-12T00:14:24;7.30;97.20
64689;DHT22;62504;46.070;14.492;2023-03-12T00:16:50;7.30;97.40
64689;DHT22;62504;46.070;14.492;2023-03-12T00:19:16;7.30;97.60
64689;DHT22;62504;46.070;14.492;2023-03-12T00:21:42;7.40;97.60
64689;DHT22;62504;46.070;14.492;2023-03-12T00:24:07;7.40;97.20
64689;DHT22;62504;46.070;14.492;2023-03-12T00:26:33;7.30;97.30
64689;DHT22;62504;46.070;14.492;2023-03-12T00:28:59;7.30;97.50
64689;DHT22;62504;46.070;14.492;2023-03-12T00:31:30;7.20;97.40
64689;DHT22;62504;46.070;14.492;2023-03-12T00:33:58;7.20;97.70
64689;DHT22;62504;46.070;14.492;2023-03-12T00:36:26;7.30;97.80
64689;DHT22;62504;46.070;14.492;2023-03-12T00:38:52;7.30;97.60
64689;DHT22;62504;46.070;14.492;2023-03-12T00:41:19;7.40;97.50
64689;DHT22;62504;46.070;14.492;2023-03-12T00:43:46;7.20;97.60
64689;DHT22;62504;46.070;14.492;2023-03-12T00:46:12;7.20;97.70
64689;DHT22;62504;46.070;14.492;2023-03-12T00:48:37;7.20;97.60
64689;DHT22;62504;46.070;14.492;2023-03-12T00:51:03;7.20;97.60
64689;DHT22;62504;46.070;14.492;2023-03-12T00:53:29;7.10;97.40
64689;DHT22;62504;46.070;14.492;2023-03-12T00:55:54;7.20;97.30
64689;DHT22;62504;46.070;14.492;2023-03-12T00:58:20;7.10;96.80
64689;DHT22;62504;46.070;14.492;2023-03-12T01:00:46;6.90;96.50
64689;DHT22;62504;46.070;14.492;2023-03-12T01:03:12;6.80;96.80
64689;DHT22;62504;46.070;14.492;2023-03-12T01:05:38;6.80;96.80
64689;DHT22;62504;46.070;14.492;2023-03-12T01:08:06;6.70;96.70
64689;DHT22;62504;46.070;14.492;2023-03-12T01:10:32;6.70;96.60
64689;DHT22;62504;46.070;14.492;2023-03-12T01:12:58;6.80;96.40
64689;DHT22;62504;46.070;14.492;2023-03-12T01:15:24;6.70;96.10
64689;DHT22;62504;46.070;14.492;2023-03-12T01:17:50;6.80;96.00
64689;DHT22;62504;46.070;14.492;2023-03-12T01:20:16;6.70;96.30
64689;DHT22;62504;46.070;14.492;2023-03-12T01:22:42;6.90;95.90
64689;DHT22;62504;46.070;14.492;2023-03-12T01:25:09;7.00;96.00
64689;DHT22;62504;46.070;14.492;2023-03-12T01:27:35;7.00;95.80
64689;DHT22;62504;46.070;14.492;2023-03-12T01:30:01;6.90;96.20
64689;DHT22;62504;46.070;14.492;2023-03-12T01:32:27;6.70;96.40
64689;DHT22;62504;46.070;14.492;2023-03-12T01:34:53;6.60;96.70
64689;DHT22;62504;46.070;14.492;2023-03-12T01:37:18;6.70;96.60
64689;DHT22;62504;46.070;14.492;2023-03-12T01:39:44;6.80;96.70
64689;DHT22;62504;46.070;14.492;2023-03-12T01:42:10;6.80;96.80
64689;DHT22;62504;46.070;14.492;2023-03-12T01:45:02;6.60;97.00
64689;DHT22;62504;46.070;14.492;2023-03-12T01:47:28;6.50;97.10
64689;DHT22;62504;46.070;14.492;2023-03-12T01:49:59;6.50;96.80
64689;DHT22;62504;46.070;14.492;2023-03-12T01:52:31;6.40;97.10
64689;DHT22;62504;46.070;14.492;2023-03-12T01:57:33;6.50;97.10
64689;DHT22;62504;46.070;14.492;2023-03-12T02:00:23;6.50;97.20
64689;DHT22;62504;46.070;14.492;2023-03-12T02:02:51;6.50;96.70
64689;DHT22;62504;46.070;14.492;2023-03-12T02:05:34;6.40;96.90
64689;DHT22;62504;46.070;14.492;2023-03-12T02:08:03;6.50;96.60
64689;DHT22;62504;46.070;14.492;2023-03-12T02:10:29;6.40;96.60
64689;DHT22;62504;46.070;14.492;2023-03-12T02:12:55;6.30;96.90
64689;DHT22;62504;46.070;14.492;2023-03-12T02:15:21;6.30;96.90
64689;DHT22;62504;46.070;14.492;2023-03-12T02:17:48;6.30;96.90
64689;DHT22;62504;46.070;14.492;2023-03-12T02:23:09;6.20;96.80
64689;DHT22;62504;46.070;14.492;2023-03-12T02:25:43;6.30;96.80
64689;DHT22;62504;46.070;14.492;2023-03-12T02:28:12;6.30;96.60
64689;DHT22;62504;46.070;14.492;2023-03-12T02:30:45;6.30;96.50
64689;DHT22;62504;46.070;14.492;2023-03-12T02:33:12;6.30;96.70
64689;DHT22;62504;46.070;14.492;2023-03-12T02:35:40;6.40;96.70
64689;DHT22;62504;46.070;14.492;2023-03-12T02:38:45;6.30;96.70
64689;DHT22;62504;46.070;14.492;2023-03-12T02:41:33;6.30;96.40
64689;DHT22;62504;46.070;14.492;2023-03-12T02:44:05;6.30;96.20
64689;DHT22;62504;46.070;14.492;2023-03-12T02:46:37;6.20;96.50
64689;DHT22;62504;46.070;14.492;2023-03-12T02:49:03;5.90;96.60
64689;DHT22;62504;46.070;14.492;2023-03-12T02:51:29;6.00;96.80
64689;DHT22;62504;46.070;14.492;2023-03-12T02:53:55;6.00;96.60
64689;DHT22;62504;46.070;14.492;2023-03-12T02:56:22;6.00;96.40
64689;DHT22;62504;46.070;14.492;2023-03-12T02:58:48;6.10;96.70
64689;DHT22;62504;46.070;14.492;2023-03-12T03:01:15;6.10;96.50
64689;DHT22;62504;46.070;14.492;2023-03-12T03:03:40;6.00;96.70
64689;DHT22;62504;46.070;14.492;2023-03-12T03:06:06;6.00;96.80
64689;DHT22;62504;46.070;14.492;2023-03-12T03:08:32;5.90;96.80
64689;DHT22;62504;46.070;14.492;2023-03-12T03:10:57;6.00;96.90
64689;DHT22;62504;46.070;14.492;2023-03-12T03:13:25;6.00;97.00
64689;DHT22;62504;46.070;14.492;2023-03-12T03:15:50;5.90;96.90
64689;DHT22;62504;46.070;14.492;2023-03-12T03:18:16;5.90;97.10
64689;DHT22;62504;46.070;14.492;2023-03-12T03:20:41;5.80;97.10
64689;DHT22;62504;46.070;14.492;2023-03-12T03:23:09;5.80;97.10
64689;DHT22;62504;46.070;14.492;2023-03-12T03:25:34;5.80;97.10
64689;DHT22;62504;46.070;14.492;2023-03-12T03:28:00;5.80;97.20
64689;DHT22;62504;46.070;14.492;2023-03-12T03:30:26;5.90;97.30
64689;DHT22;62504;46.070;14.492;2023-03-12T03:32:51;5.70;97.20
64689;DHT22;62504;46.070;14.492;2023-03-12T03:35:17;5.70;97.40
64689;DHT22;62504;46.070;14.492;2023-03-12T03:37:43;5.90;97.40
64689;DHT22;62504;46.070;14.492;2023-03-12T03:40:09;5.80;97.30
64689;DHT22;62504;46.070;14.492;2023-03-12T03:42:37;5.80;97.40
64689;DHT22;62504;46.070;14.492;2023-03-12T03:45:05;5.80;97.40
64689;DHT22;62504;46.070;14.492;2023-03-12T03:47:30;5.60;97.60
64689;DHT22;62504;46.070;14.492;2023-03-12T03:49:56;5.70;97.60
64689;DHT22;62504;46.070;14.492;2023-03-12T03:52:22;5.60;97.80
64689;DHT22;62504;46.070;14.492;2023-03-12T03:54:47;5.70;97.70
64689;DHT22;62504;46.070;14.492;2023-03-12T03:57:13;5.80;97.50
64689;DHT22;62504;46.070;14.492;2023-03-12T03:59:39;5.60;97.60
64689;DHT22;62504;46.070;14.492;2023-03-12T04:02:04;5.40;97.60
64689;DHT22;62504;46.070;14.492;2023-03-12T04:04:30;5.50;97.80
64689;DHT22;62504;46.070;14.492;2023-03-12T04:06:56;5.50;97.70
64689;DHT22;62504;46.070;14.492;2023-03-12T04:09:22;5.40;97.80
64689;DHT22;62504;46.070;14.492;2023-03-12T04:11:47;5.30;98.10
64689;DHT22;62504;46.070;14.492;2023-03-12T04:14:13;5.40;98.10
64689;DHT22;62504;46.070;14.492;2023-03-12T04:16:38;5.40;98.00
64689;DHT22;62504;46.070;14.492;2023-03-12T04:19:04;5.40;98.00
64689;DHT22;62504;46.070;14.492;2023-03-12T04:21:30;5.50;98.00
64689;DHT22;62504;46.070;14.492;2023-03-12T04:23:55;5.60;98.00
64689;DHT22;62504;46.070;14.492;2023-03-12T04:26:21;5.40;98.00
64689;DHT22;62504;46.070;14.492;2023-03-12T04:28:46;5.30;98.10
64689;DHT22;62504;46.070;14.492;2023-03-12T04:31:12;5.40;98.10
64689;DHT22;62504;46.070;14.492;2023-03-12T04:33:39;5.30;98.30
64689;DHT22;62504;46.070;14.492;2023-03-12T04:36:05;5.30;98.80
64689;DHT22;62504;46.070;14.492;2023-03-12T04:38:31;5.20;98.60
64689;DHT22;62504;46.070;14.492;2023-03-12T04:41:02;5.10;98.60
64689;DHT22;62504;46.070;14.492;2023-03-12T04:43:29;5.00;98.90
64689;DHT22;62504;46.070;14.492;2023-03-12T04:45:56;5.00;98.90
64689;DHT22;62504;46.070;14.492;2023-03-12T04:48:22;5.20;98.80
64689;DHT22;62504;46.070;14.492;2023-03-12T04:50:48;5.30;98.70
64689;DHT22;62504;46.070;14.492;2023-03-12T04:53:13;5.30;98.70
64689;DHT22;62504;46.070;14.492;2023-03-12T04:55:39;5.00;99.00
64689;DHT22;62504;46.070;14.492;2023-03-12T04:58:05;5.10;99.10
64689;DHT22;62504;46.070;14.492;2023-03-12T05:00:31;4.90;99.40
64689;DHT22;62504;46.070;14.492;2023-03-12T05:02:56;4.90;99.80
64689;DHT22;62504;46.070;14.492;2023-03-12T05:05:22;4.90;99.80
64689;DHT22;62504;46.070;14.492;2023-03-12T05:07:48;5.00;99.80
64689;DHT22;62504;46.070;14.492;2023-03-12T05:10:14;4.90;99.90
64689;DHT22;62504;46.070;14.492;2023-03-12T05:12:39;4.90;99.90
64689;DHT22;62504;46.070;14.492;2023-03-12T05:15:05;4.80;99.90
64689;DHT22;62504;46.070;14.492;2023-03-12T05:17:31;4.90;99.80
64689;DHT22;62504;46.070;14.492;2023-03-12T05:19:57;4.90;99.80
64689;DHT22;62504;46.070;14.492;2023-03-12T05:22:22;4.70;99.90
64689;DHT22;62504;46.070;14.492;2023-03-12T05:24:48;4.80;99.90
64689;DHT22;62504;46.070;14.492;2023-03-12T05:27:14;4.80;99.90
64689;DHT22;62504;46.070;14.492;2023-03-12T05:29:39;4.70;99.90
64689;DHT22;62504;46.070;14.492;2023-03-12T05:32:05;4.70;99.90
64689;DHT22;62504;46.070;14.492;2023-03-12T05:34:32;4.70;99.90
64689;DHT22;62504;46.070;14.492;2023-03-12T05:36:58;4.80;99.90
64689;DHT22;62504;46.070;14.492;2023-03-12T05:39:25;4.70;99.90
64689;DHT22;62504;46.070;14.492;2023-03-12T05:41:51;4.80;99.90
64689;DHT22;62504;46.070;14.492;2023-03-12T05:44:22;4.80;99.90
64689;DHT22;62504;46.070;14.492;2023-03-12T05:46:48;4.60;99.90
64689;DHT22;62504;46.070;14.492;2023-03-12T05:49:14;4.90;99.90
64689;DHT22;62504;46.070;14.492;2023-03-12T05:51:39;5.00;99.90
64689;DHT22;62504;46.070;14.492;2023-03-12T05:54:06;4.80;99.90
64689;DHT22;62504;46.070;14.492;2023-03-12T05:56:32;4.70;99.90
64689;DHT22;62504;46.070;14.492;2023-03-12T05:58:57;4.70;99.90
64689;DHT22;62504;46.070;14.492;2023-03-12T06:01:26;4.60;99.90
64689;DHT22;62504;46.070;14.492;2023-03-12T06:03:52;4.70;99.90
64689;DHT22;62504;46.070;14.492;2023-03-12T06:06:19;4.80;99.90
64689;DHT22;62504;46.070;14.492;2023-03-12T06:08:45;4.80;99.90
64689;DHT22;62504;46.070;14.492;2023-03-12T06:11:12;4.70;99.90
64689;DHT22;62504;46.070;14.492;2023-03-12T06:13:38;4.80;99.90
64689;DHT22;62504;46.070;14.492;2023-03-12T06:16:11;4.80;99.90
64689;DHT22;62504;46.070;14.492;2023-03-12T06:18:38;4.80;99.90
64689;DHT22;62504;46.070;14.492;2023-03-12T06:21:17;4.80;99.90
64689;DHT22;62504;46.070;14.492;2023-03-12T06:23:43;5.10;99.90
64689;DHT22;62504;46.070;14.492;2023-03-12T06:26:10;5.20;99.90
64689;DHT22;62504;46.070;14.492;2023-03-12T06:28:36;5.40;99.70
64689;DHT22;62504;46.070;14.492;2023-03-12T06:31:03;5.40;99.60
64689;DHT22;62504;46.070;14.492;2023-03-12T06:33:29;5.70;99.30
64689;DHT22;62504;46.070;14.492;2023-03-12T06:35:57;6.00;98.90
64689;DHT22;62504;46.070;14.492;2023-03-12T06:38:23;6.70;98.00
64689;DHT22;62504;46.070;14.492;2023-03-12T06:40:57;7.60;96.60
64689;DHT22;62504;46.070;14.492;2023-03-12T06:43:24;7.80;95.80
64689;DHT22;62504;46.070;14.492;2023-03-12T06:45:50;7.70;95.70
64689;DHT22;62504;46.070;14.492;2023-03-12T06:48:16;7.80;94.90
64689;DHT22;62504;46.070;14.492;2023-03-12T06:50:42;8.20;94.60
64689;DHT22;62504;46.070;14.492;2023-03-12T06:53:08;7.60;94.10
64689;DHT22;62504;46.070;14.492;2023-03-12T06:55:33;7.90;94.70
64689;DHT22;62504;46.070;14.492;2023-03-12T06:57:59;8.40;93.40
64689;DHT22;62504;46.070;14.492;2023-03-12T07:00:25;8.10;93.70
64689;DHT22;62504;46.070;14.492;2023-03-12T07:02:52;8.40;93.60
64689;DHT22;62504;46.070;14.492;2023-03-12T07:05:18;8.90;92.50
64689;DHT22;62504;46.070;14.492;2023-03-12T07:07:43;9.90;91.50
64689;DHT22;62504;46.070;14.492;2023-03-12T07:10:10;10.30;90.10
64689;DHT22;62504;46.070;14.492;2023-03-12T07:12:36;10.10;90.50
64689;DHT22;62504;46.070;14.492;2023-03-12T07:15:02;10.00;90.00
64689;DHT22;62504;46.070;14.492;2023-03-12T07:17:28;9.40;90.60
64689;DHT22;62504;46.070;14.492;2023-03-12T07:19:54;9.20;90.30
64689;DHT22;62504;46.070;14.492;2023-03-12T07:22:19;9.10;90.70
64689;DHT22;62504;46.070;14.492;2023-03-12T07:24:45;8.80;91.20
64689;DHT22;62504;46.070;14.492;2023-03-12T07:27:11;8.70;91.40
64689;DHT22;62504;46.070;14.492;2023-03-12T07:29:36;8.80;91.50
64689;DHT22;62504;46.070;14.492;2023-03-12T07:32:02;9.00;90.90
64689;DHT22;62504;46.070;14.492;2023-03-12T07:34:28;9.30;90.90
64689;DHT22;62504;46.070;14.492;2023-03-12T07:36:53;9.00;91.70
64689;DHT22;62504;46.070;14.492;2023-03-12T07:39:20;8.40;91.30
64689;DHT22;62504;46.070;14.492;2023-03-12T07:41:46;7.90;91.90
64689;DHT22;62504;46.070;14.492;2023-03-12T07:44:12;7.80;92.40
64689;DHT22;62504;46.070;14.492;2023-03-12T07:46:38;8.40;92.10
64689;DHT22;62504;46.070;14.492;2023-03-12T07:49:03;8.10;91.70
64689;DHT22;62504;46.070;14.492;2023-03-12T07:51:29;7.80;91.90
64689;DHT22;62504;46.070;14.492;2023-03-12T07:53:55;8.20;91.60
64689;DHT22;62504;46.070;14.492;2023-03-12T07:56:21;8.00;91.70
64689;DHT22;62504;46.070;14.492;2023-03-12T07:58:47;8.50;91.60
64689;DHT22;62504;46.070;14.492;2023-03-12T08:01:13;8.70;91.30
64689;DHT22;62504;46.070;14.492;2023-03-12T08:03:39;8.70;90.80
64689;DHT22;62504;46.070;14.492;2023-03-12T08:06:05;9.10;90.40
64689;DHT22;62504;46.070;14.492;2023-03-12T08:08:31;9.50;90.10
64689;DHT22;62504;46.070;14.492;2023-03-12T08:10:58;10.00;90.00
64689;DHT22;62504;46.070;14.492;2023-03-12T08:13:24;9.50;89.30
64689;DHT22;62504;46.070;14.492;2023-03-12T08:15:52;9.50;89.20
64689;DHT22;62504;46.070;14.492;2023-03-12T08:18:18;9.30;89.80
64689;DHT22;62504;46.070;14.492;2023-03-12T08:20:44;9.20;90.00
64689;DHT22;62504;46.070;14.492;2023-03-12T08:23:10;9.30;89.50
64689;DHT22;62504;46.070;14.492;2023-03-12T08:25:36;9.50;90.00
64689;DHT22;62504;46.070;14.492;2023-03-12T08:28:03;10.00;88.40
64689;DHT22;62504;46.070;14.492;2023-03-12T08:30:30;10.00;87.50
64689;DHT22;62504;46.070;14.492;2023-03-12T08:32:56;10.40;87.10
64689;DHT22;62504;46.070;14.492;2023-03-12T08:35:21;10.30;86.80
64689;DHT22;62504;46.070;14.492;2023-03-12T08:37:47;10.20;86.60
64689;DHT22;62504;46.070;14.492;2023-03-12T08:40:13;10.30;87.30
64689;DHT22;62504;46.070;14.492;2023-03-12T08:42:39;10.20;86.10
64689;DHT22;62504;46.070;14.492;2023-03-12T08:45:05;10.60;86.60
64689;DHT22;62504;46.070;14.492;2023-03-12T08:47:31;10.50;85.20
64689;DHT22;62504;46.070;14.492;2023-03-12T08:49:57;10.60;85.40
64689;DHT22;62504;46.070;14.492;2023-03-12T08:52:23;10.70;87.40
64689;DHT22;62504;46.070;14.492;2023-03-12T08:54:49;10.40;87.40
64689;DHT22;62504;46.070;14.492;2023-03-12T08:57:14;10.00;86.00
64689;DHT22;62504;46.070;14.492;2023-03-12T08:59:40;10.10;87.00
64689;DHT22;62504;46.070;14.492;2023-03-12T09:02:08;9.70;87.50
64689;DHT22;62504;46.070;14.492;2023-03-12T09:04:35;10.00;87.20
64689;DHT22;62504;46.070;14.492;2023-03-12T09:07:01;10.30;86.40
64689;DHT22;62504;46.070;14.492;2023-03-12T09:09:26;10.40;85.70
64689;DHT22;62504;46.070;14.492;2023-03-12T09:11:52;10.10;86.50
64689;DHT22;62504;46.070;14.492;2023-03-12T09:14:18;11.00;86.10
64689;DHT22;62504;46.070;14.492;2023-03-12T09:16:44;11.10;84.60
64689;DHT22;62504;46.070;14.492;2023-03-12T09:19:10;11.10;85.20
64689;DHT22;62504;46.070;14.492;2023-03-12T09:21:35;11.20;83.50
64689;DHT22;62504;46.070;14.492;2023-03-12T09:24:01;11.40;83.90
64689;DHT22;62504;46.070;14.492;2023-03-12T09:26:27;11.60;82.70
64689;DHT22;62504;46.070;14.492;2023-03-12T09:28:53;10.90;83.90
64689;DHT22;62504;46.070;14.492;2023-03-12T09:31:19;10.40;84.70
64689;DHT22;62504;46.070;14.492;2023-03-12T09:33:44;10.70;84.00
64689;DHT22;62504;46.070;14.492;2023-03-12T09:36:10;10.80;83.60
64689;DHT22;62504;46.070;14.492;2023-03-12T09:38:36;11.70;84.00
64689;DHT22;62504;46.070;14.492;2023-03-12T09:41:10;11.40;82.80
64689;DHT22;62504;46.070;14.492;2023-03-12T09:43:41;11.80;82.80
64689;DHT22;62504;46.070;14.492;2023-03-12T09:46:24;11.40;82.40
64689;DHT22;62504;46.070;14.492;2023-03-12T09:48:52;11.50;81.50
64689;DHT22;62504;46.070;14.492;2023-03-12T09:51:37;11.50;82.00
64689;DHT22;62504;46.070;14.492;2023-03-12T09:54:06;11.20;81.50
64689;DHT22;62504;46.070;14.492;2023-03-12T09:56:34;10.50;83.30
64689;DHT22;62504;46.070;14.492;2023-03-12T09:59:00;11.10;85.40
64689;DHT22;62504;46.070;14.492;2023-03-12T10:01:48;11.50;83.60
64689;DHT22;62504;46.070;14.492;2023-03-12T10:17:42;9.90;85.00
64689;DHT22;62504;46.070;14.492;2023-03-12T10:26:45;10.10;85.30
64689;DHT22;62504;46.070;14.492;2023-03-12T10:29:15;10.20;85.00
64689;DHT22;62504;46.070;14.492;2023-03-12T10:32:13;10.60;84.80
64689;DHT22;62504;46.070;14.492;2023-03-12T10:39:47;11.00;83.00
64689;DHT22;62504;46.070;14.492;2023-03-12T10:42:17;10.80;84.50
64689;DHT22;62504;46.070;14.492;2023-03-12T10:44:45;10.90;83.10
64689;DHT22;62504;46.070;14.492;2023-03-12T10:47:35;10.80;85.70
64689;DHT22;62504;46.070;14.492;2023-03-12T10:50:20;10.70;84.40
64689;DHT22;62504;46.070;14.492;2023-03-12T10:52:48;10.50;85.30
64689;DHT22;62504;46.070;14.492;2023-03-12T10:55:27;10.60;84.80
64689;DHT22;62504;46.070;14.492;2023-03-12T10:57:56;10.30;83.90
64689;DHT22;62504;46.070;14.492;2023-03-12T11:00:28;10.40;84.00
64689;DHT22;62504;46.070;14.492;2023-03-12T11:03:02;10.20;84.00
64689;DHT22;62504;46.070;14.492;2023-03-12T11:05:46;10.20;85.60
64689;DHT22;62504;46.070;14.492;2023-03-12T11:08:34;10.30;83.90
64689;DHT22;62504;46.070;14.492;2023-03-12T11:11:01;10.10;84.60
64689;DHT22;62504;46.070;14.492;2023-03-12T11:16:24;10.30;84.70
64689;DHT22;62504;46.070;14.492;2023-03-12T11:18:55;10.50;85.90
64689;DHT22;62504;46.070;14.492;2023-03-12T11:21:24;10.40;86.70
64689;DHT22;62504;46.070;14.492;2023-03-12T11:26:30;10.20;86.10
64689;DHT22;62504;46.070;14.492;2023-03-12T11:29:29;10.00;87.80
64689;DHT22;62504;46.070;14.492;2023-03-12T11:32:19;10.10;85.80
64689;DHT22;62504;46.070;14.492;2023-03-12T11:34:47;10.10;85.60
64689;DHT22;62504;46.070;14.492;2023-03-12T11:49:13;10.50;85.10
64689;DHT22;62504;46.070;14.492;2023-03-12T11:57:23;10.10;86.50
64689;DHT22;62504;46.070;14.492;2023-03-12T12:00:21;10.00;86.50
64689;DHT22;62504;46.070;14.492;2023-03-12T12:05:37;10.10;87.40
64689;DHT22;62504;46.070;14.492;2023-03-12T12:13:40;10.40;85.90
64689;DHT22;62504;46.070;14.492;2023-03-12T12:19:43;10.40;87.40
64689;DHT22;62504;46.070;14.492;2023-03-12T12:35:55;10.90;87.20
64689;DHT22;62504;46.070;14.492;2023-03-12T12:38:46;10.80;87.50
64689;DHT22;62504;46.070;14.492;2023-03-12T12:41:20;10.90;87.60
64689;DHT22;62504;46.070;14.492;2023-03-12T12:46:46;10.80;88.60
64689;DHT22;62504;46.070;14.492;2023-03-12T12:49:26;10.90;87.20
64689;DHT22;62504;46.070;14.492;2023-03-12T12:52:02;11.00;86.30
64689;DHT22;62504;46.070;14.492;2023-03-12T12:54:35;11.10;87.30
64689;DHT22;62504;46.070;14.492;2023-03-12T12:59:42;11.30;88.30
64689;DHT22;62504;46.070;14.492;2023-03-12T13:02:18;11.50;88.70
64689;DHT22;62504;46.070;14.492;2023-03-12T13:04:45;11.60;88.80
64689;DHT22;62504;46.070;14.492;2023-03-12T13:09:39;11.20;85.10
64689;DHT22;62504;46.070;14.492;2023-03-12T13:12:10;11.20;86.30
64689;DHT22;62504;46.070;14.492;2023-03-12T13:14:41;10.90;86.70
64689;DHT22;62504;46.070;14.492;2023-03-12T13:17:31;11.10;86.70
64689;DHT22;62504;46.070;14.492;2023-03-12T13:20:12;11.20;87.70
64689;DHT22;62504;46.070;14.492;2023-03-12T13:25:52;11.10;86.10
64689;DHT22;62504;46.070;14.492;2023-03-12T13:28:31;11.00;85.70
64689;DHT22;62504;46.070;14.492;2023-03-12T13:33:49;10.90;86.60
64689;DHT22;62504;46.070;14.492;2023-03-12T13:41:34;10.80;87.00
64689;DHT22;62504;46.070;14.492;2023-03-12T13:46:46;10.90;86.10
64689;DHT22;62504;46.070;14.492;2023-03-12T13:49:15;11.00;86.10
64689;DHT22;62504;46.070;14.492;2023-03-12T13:51:52;11.00;85.60
64689;DHT22;62504;46.070;14.492;2023-03-12T13:54:19;11.00;86.20
64689;DHT22;62504;46.070;14.492;2023-03-12T13:57:04;10.90;86.00
64689;DHT22;62504;46.070;14.492;2023-03-12T13:59:35;11.00;85.80
64689;DHT22;62504;46.070;14.492;2023-03-12T14:02:23;11.20;86.70
64689;DHT22;62504;46.070;14.492;2023-03-12T14:04:50;11.20;85.70
64689;DHT22;62504;46.070;14.492;2023-03-12T14:15:43;11.00;85.60
64689;DHT22;62504;46.070;14.492;2023-03-12T14:18:29;11.00;86.40
64689;DHT22;62504;46.070;14.492;2023-03-12T14:21:00;11.20;86.50
64689;DHT22;62504;46.070;14.492;2023-03-12T14:23:43;11.40;86.90
64689;DHT22;62504;46.070;14.492;2023-03-12T14:26:19;11.20;85.20
64689;DHT22;62504;46.070;14.492;2023-03-12T14:28:46;11.00;85.80
64689;DHT22;62504;46.070;14.492;2023-03-12T14:31:16;11.10;86.00
64689;DHT22;62504;46.070;14.492;2023-03-12T14:33:59;11.10;85.60
64689;DHT22;62504;46.070;14.492;2023-03-12T14:36:38;11.10;85.80
64689;DHT22;62504;46.070;14.492;2023-03-12T14:41:59;11.20;85.80
64689;DHT22;62504;46.070;14.492;2023-03-12T14:44:27;11.10;86.00
64689;DHT22;62504;46.070;14.492;2023-03-12T14:47:00;11.20;86.00
64689;DHT22;62504;46.070;14.492;2023-03-12T14:49:27;11.00;86.10
64689;DHT22;62504;46.070;14.492;2023-03-12T14:51:54;11.10;86.40
64689;DHT22;62504;46.070;14.492;2023-03-12T14:54:24;11.20;86.70
64689;DHT22;62504;46.070;14.492;2023-03-12T14:56:50;11.20;85.90
64689;DHT22;62504;46.070;14.492;2023-03-12T14:59:28;11.20;85.40
64689;DHT22;62504;46.070;14.492;2023-03-12T15:02:02;11.10;85.40
64689;DHT22;62504;46.070;14.492;2023-03-12T15:04:29;11.10;86.20
64689;DHT22;62504;46.070;14.492;2023-03-12T15:06:59;11.10;85.90
64689;DHT22;62504;46.070;14.492;2023-03-12T15:09:30;11.20;85.80
64689;DHT22;62504;46.070;14.492;2023-03-12T15:12:05;11.30;86.30
64689;DHT22;62504;46.070;14.492;2023-03-12T15:14:34;11.20;86.40
64689;DHT22;62504;46.070;14.492;2023-03-12T15:17:03;11.20;86.70
64689;DHT22;62504;46.070;14.492;2023-03-12T15:19:34;11.20;86.80
64689;DHT22;62504;46.070;14.492;2023-03-12T15:22:02;11.10;86.20
64689;DHT22;62504;46.070;14.492;2023-03-12T15:24:33;11.10;86.80
64689;DHT22;62504;46.070;14.492;2023-03-12T15:29:51;11.10;87.10
64689;DHT22;62504;46.070;14.492;2023-03-12T15:32:19;11.10;86.80
64689;DHT22;62504;46.070;14.492;2023-03-12T15:34:46;11.00;86.60
64689;DHT22;62504;46.070;14.492;2023-03-12T15:37:19;11.00;86.40
64689;DHT22;62504;46.070;14.492;2023-03-12T15:39:51;10.90;87.40
64689;DHT22;62504;46.070;14.492;2023-03-12T15:42:20;10.90;87.40
64689;DHT22;62504;46.070;14.492;2023-03-12T15:44:54;10.90;87.00
64689;DHT22;62504;46.070;14.492;2023-03-12T15:47:27;11.00;87.60
64689;DHT22;62504;46.070;14.492;2023-03-12T15:50:02;11.00;87.40
64689;DHT22;62504;46.070;14.492;2023-03-12T15:52:34;11.00;87.40
64689;DHT22;62504;46.070;14.492;2023-03-12T15:57:55;11.00;88.20
64689;DHT22;62504;46.070;14.492;2023-03-12T16:02:52;11.10;88.40
64689;DHT22;62504;46.070;14.492;2023-03-12T16:05:21;11.20;88.00
64689;DHT22;62504;46.070;14.492;2023-03-12T16:07:47;11.20;87.70
64689;DHT22;62504;46.070;14.492;2023-03-12T16:10:15;11.10;88.70
64689;DHT22;62504;46.070;14.492;2023-03-12T16:12:44;11.00;88.20
64689;DHT22;62504;46.070;14.492;2023-03-12T16:15:15;11.00;88.20
64689;DHT22;62504;46.070;14.492;2023-03-12T16:17:41;10.90;88.00
64689;DHT22;62504;46.070;14.492;2023-03-12T16:20:12;10.90;88.50
64689;DHT22;62504;46.070;14.492;2023-03-12T16:22:38;10.80;88.10
64689;DHT22;62504;46.070;14.492;2023-03-12T16:25:05;10.90;88.40
64689;DHT22;62504;46.070;14.492;2023-03-12T16:27:31;10.90;88.10
64689;DHT22;62504;46.070;14.492;2023-03-12T16:30:05;10.90;88.40
64689;DHT22;62504;46.070;14.492;2023-03-12T16:32:31;10.90;88.40
64689;DHT22;62504;46.070;14.492;2023-03-12T16:34:57;10.90;88.50
64689;DHT22;62504;46.070;14.492;2023-03-12T16:37:22;10.80;88.90
64689;DHT22;62504;46.070;14.492;2023-03-12T16:39:49;10.70;88.50
64689;DHT22;62504;46.070;14.492;2023-03-12T16:42:17;10.80;88.70
64689;DHT22;62504;46.070;14.492;2023-03-12T16:44:44;10.70;88.80
64689;DHT22;62504;46.070;14.492;2023-03-12T16:47:13;10.70;88.90
64689;DHT22;62504;46.070;14.492;2023-03-12T16:49:39;10.70;89.20
64689;DHT22;62504;46.070;14.492;2023-03-12T16:52:20;10.70;89.30
64689;DHT22;62504;46.070;14.492;2023-03-12T16:54:49;10.70;89.20
64689;DHT22;62504;46.070;14.492;2023-03-12T16:59:49;10.70;89.80
64689;DHT22;62504;46.070;14.492;2023-03-12T17:02:17;10.70;90.10
64689;DHT22;62504;46.070;14.492;2023-03-12T17:04:43;10.60;90.50
64689;DHT22;62504;46.070;14.492;2023-03-12T17:07:09;10.50;90.80
64689;DHT22;62504;46.070;14.492;2023-03-12T17:09:35;10.50;91.00
64689;DHT22;62504;46.070;14.492;2023-03-12T17:12:00;10.50;91.00
64689;DHT22;62504;46.070;14.492;2023-03-12T17:14:27;10.40;91.10
64689;DHT22;62504;46.070;14.492;2023-03-12T17:16:54;10.40;91.00
64689;DHT22;62504;46.070;14.492;2023-03-12T17:19:20;10.30;91.20
64689;DHT22;62504;46.070;14.492;2023-03-12T17:21:46;10.40;91.20
64689;DHT22;62504;46.070;14.492;2023-03-12T17:24:13;10.30;91.50
64689;DHT22;62504;46.070;14.492;2023-03-12T17:26:39;10.20;91.60
64689;DHT22;62504;46.070;14.492;2023-03-12T17:29:05;10.20;91.70
64689;DHT22;62504;46.070;14.492;2023-03-12T17:31:31;10.20;91.90
64689;DHT22;62504;46.070;14.492;2023-03-12T17:33:57;10.10;91.90
64689;DHT22;62504;46.070;14.492;2023-03-12T17:36:23;10.10;92.00
64689;DHT22;62504;46.070;14.492;2023-03-12T17:38:48;10.20;92.00